Time;durP1;ratioP1;P1;durP2;ratioP2;P2;SDS_P1;SDS_P2;PMS_P1;PMS_P2;Temp;Humidity;BMP_temperature;BMP_pressure;BME280_temperature;BME280_humidity;BME280_pressure;Samples;Min_cycle;Max_cycle;Signal;HPM_P1;HPM_P2
2024/02/21 00:00:18;;;;;;;10.20;6.10;;;;;;;6.32;73.41;101320.35;105995;1256;73877;-83
2024/02/21 00:02:45;;;;;;;10.60;6.00;;;;;;;6.33;73.63;101321.63;106079;1262;66151;-86
2024/02/21 00:05:13;;;;;;;8.90;6.10;;;;;;;6.40;73.26;101320.02;106068;1256;72707;-86
2024/02/21 00:07:41;;;;;;;10.90;6.40;;;;;;;6.41;73.04;101316.42;106119;1256;60452;-87
2024/02/21 00:10:09;;;;;;;10.60;6.70;;;;;;;6.32;73.40;101312.46;106085;1256;60389;-86
2024/02/21 00:12:37;;;;;;;10.10;6.30;;;;;;;6.32;73.97;101309.22;106085;1257;73893;-86
2024/02/21 00:15:06;;;;;;;14.40;7.00;;;;;;;6.39;73.28;101310.61;105940;1256;68784;-86
2024/02/21 00:17:34;;;;;;;12.20;7.00;;;;;;;6.27;74.11;101308.40;106144;1256;72688;-86
2024/02/21 00:20:01;;;;;;;11.60;6.30;;;;;;;6.41;73.53;101307.61;106188;1256;60438;-86
2024/02/21 00:22:31;;;;;;;14.30;6.50;;;;;;;6.62;72.12;101300.67;106010;1260;60403;-83
2024/02/21 00:24:59;;;;;;;19.10;11.40;;;;;;;6.61;72.06;101302.23;106000;1257;73902;-86
2024/02/21 00:27:27;;;;;;;10.50;6.40;;;;;;;6.59;71.92;101307.02;106164;1256;67591;-83
2024/02/21 00:29:54;;;;;;;11.40;6.40;;;;;;;6.64;71.80;101307.83;106092;1261;70624;-86
2024/02/21 00:32:22;;;;;;;11.00;7.20;;;;;;;6.72;71.04;101303.81;106119;1256;60473;-83
2024/02/21 00:34:50;;;;;;;12.70;6.40;;;;;;;6.73;71.30;101301.13;105907;1261;60031;-83
2024/02/21 00:37:18;;;;;;;13.40;7.20;;;;;;;6.78;71.27;101295.75;106203;1256;73846;-86
2024/02/21 00:39:45;;;;;;;9.80;6.60;;;;;;;6.77;71.27;101297.79;106099;1262;68815;-86
2024/02/21 00:42:13;;;;;;;12.00;6.90;;;;;;;6.90;70.55;101297.34;106245;1256;72652;-87
2024/02/21 00:44:41;;;;;;;11.00;6.70;;;;;;;6.90;70.56;101287.56;106224;1256;60444;-83
2024/02/21 00:47:10;;;;;;;11.90;7.00;;;;;;;6.97;70.20;101288.88;106086;1256;60341;-83
2024/02/21 00:49:37;;;;;;;10.90;7.20;;;;;;;7.03;69.77;101282.00;105953;1256;72659;-86
2024/02/21 00:52:05;;;;;;;14.30;7.00;;;;;;;7.12;68.96;101282.34;106083;1256;68439;-86
2024/02/21 00:54:33;;;;;;;11.70;7.20;;;;;;;7.15;68.58;101272.55;106247;1256;71404;-83
2024/02/21 00:57:16;;;;;;;14.10;7.80;;;;;;;7.10;68.88;101267.23;106243;1257;60428;-83
2024/02/21 00:59:44;;;;;;;13.20;7.20;;;;;;;7.18;68.63;101271.50;106000;1256;60787;-83
2024/02/21 01:02:12;;;;;;;10.70;6.80;;;;;;;7.28;67.77;101266.02;106004;1256;72569;-83
2024/02/21 06:46:13;;;;;;;20.30;11.30;;;;;;;7.54;97.75;101263.91;107003;1259;72446;-92
2024/02/21 06:48:41;;;;;;;20.30;10.50;;;;;;;7.63;97.58;101264.70;107783;1258;60571;-93
2024/02/21 06:51:20;;;;;;;19.80;11.10;;;;;;;7.77;96.95;101265.33;106736;1254;60000;-92
2024/02/21 06:53:48;;;;;;;19.50;11.40;;;;;;;7.92;96.22;101263.77;106571;1254;73846;-91
2024/02/21 06:56:28;;;;;;;17.70;10.60;;;;;;;8.01;95.97;101265.69;106932;1254;67224;-94
2024/02/21 06:58:57;;;;;;;18.60;10.90;;;;;;;8.06;95.79;101265.95;107236;1257;71314;-92
2024/02/21 07:01:25;;;;;;;20.20;11.60;;;;;;;8.05;95.98;101271.61;106628;1259;64446;-92
2024/02/21 07:03:53;;;;;;;18.90;11.10;;;;;;;8.08;95.47;101272.58;106453;1259;62009;-92
2024/02/21 07:06:22;;;;;;;21.40;10.70;;;;;;;8.07;95.44;101267.23;106336;1254;75903;-93
2024/02/21 07:08:50;;;;;;;18.90;11.20;;;;;;;7.99;96.03;101268.77;106535;1258;68825;-93
2024/02/21 07:11:18;;;;;;;17.80;11.40;;;;;;;8.02;96.70;101270.77;106500;1259;73891;-92
2024/02/21 07:13:49;;;;;;;20.50;12.10;;;;;;;8.07;96.46;101265.54;106410;1254;61574;-92
2024/02/21 07:16:21;;;;;;;20.10;11.30;;;;;;;8.04;96.55;101267.33;106409;1258;61186;-92
2024/02/21 07:18:52;;;;;;;20.10;11.90;;;;;;;8.05;96.83;101262.88;106444;1258;73485;-92
2024/02/21 07:21:25;;;;;;;18.40;10.50;;;;;;;8.18;96.56;101267.60;106789;1260;67117;-92
2024/02/21 07:23:57;;;;;;;21.20;12.40;;;;;;;8.25;96.42;101269.63;106867;1254;71520;-92
2024/02/21 07:26:29;;;;;;;19.60;11.40;;;;;;;8.29;96.10;101269.97;106858;1254;60431;-92
2024/02/21 07:29:01;;;;;;;18.60;12.10;;;;;;;8.22;96.99;101267.89;107156;1254;60559;-92
2024/02/21 07:31:41;;;;;;;21.20;11.50;;;;;;;8.21;97.47;101267.33;107342;1253;74713;-92
2024/02/21 07:34:15;;;;;;;20.20;11.70;;;;;;;8.31;97.02;101270.79;107535;1257;69620;-93
2024/02/21 07:36:49;;;;;;;18.60;11.30;;;;;;;8.34;97.48;101274.11;107636;1256;73616;-92
2024/02/21 07:39:21;;;;;;;18.70;12.20;;;;;;;8.38;97.26;101275.67;107003;1259;60896;-93
2024/02/21 07:41:53;;;;;;;19.80;11.60;;;;;;;8.45;96.96;101276.34;107754;1254;60508;-92
2024/02/21 07:44:25;;;;;;;18.50;10.90;;;;;;;8.48;96.42;101278.36;107377;1254;74877;-93
2024/02/21 07:46:56;;;;;;;;;;;;;;;8.44;96.84;101285.92;107793;1251;71543;-93
2024/02/21 07:49:31;;;;;;;29.60;18.00;;;;;;;8.45;97.05;101288.94;107079;1254;73736;-92
2024/02/21 07:52:03;;;;;;;22.30;12.30;;;;;;;8.38;97.42;101293.42;107663;1255;60238;-92
2024/02/21 07:54:37;;;;;;;25.70;15.30;;;;;;;8.36;97.82;101296.02;107785;1254;60805;-91
2024/02/21 07:57:05;;;;;;;23.40;13.00;;;;;;;8.35;98.18;101294.33;107671;1251;75313;-90
2024/02/21 07:59:33;;;;;;;21.40;12.60;;;;;;;8.41;98.16;101291.80;107811;1254;67092;-93
2024/02/21 08:02:02;;;;;;;21.80;12.80;;;;;;;8.40;98.72;101294.45;107053;1259;73824;-93
2024/02/21 08:04:30;;;;;;;22.70;12.50;;;;;;;8.41;99.36;101296.20;107658;1254;62343;-92
2024/02/21 08:07:04;;;;;;;21.60;13.20;;;;;;;8.48;99.29;101298.21;107258;1258;60425;-91
2024/02/21 08:09:37;;;;;;;20.40;12.90;;;;;;;8.53;99.28;101300.41;107091;1261;77547;-92
2024/02/21 08:12:10;;;;;;;23.40;13.00;;;;;;;8.58;98.83;101300.77;106886;1253;70012;-91
2024/02/21 08:14:43;;;;;;;20.70;12.20;;;;;;;8.61;99.00;101300.05;106728;1254;75104;-91
2024/02/21 08:17:15;;;;;;;22.80;13.50;;;;;;;8.66;98.64;101300.69;107069;1253;60527;-92
2024/02/21 08:19:49;;;;;;;20.70;13.50;;;;;;;8.63;98.74;101296.34;107353;1257;60593;-93
2024/02/21 08:22:20;;;;;;;22.60;13.40;;;;;;;8.62;99.17;101297.73;107696;1253;73701;-91
2024/02/21 08:24:52;;;;;;;24.50;14.50;;;;;;;8.68;98.71;101299.42;106681;1257;68682;-93
2024/02/21 08:27:24;;;;;;;24.00;14.30;;;;;;;8.74;98.89;101293.84;106446;1255;73882;-90
2024/02/21 08:29:56;;;;;;;29.30;18.60;;;;;;;8.86;98.30;101293.24;106527;1254;61258;-89
2024/02/21 08:32:28;;;;;;;20.00;13.20;;;;;;;8.81;98.41;101288.20;106480;1254;61509;-92
2024/02/21 08:35:01;;;;;;;24.20;13.80;;;;;;;8.84;98.67;101288.77;106744;1254;76295;-94
2024/02/21 08:37:33;;;;;;;34.30;19.60;;;;;;;8.85;98.71;101289.84;107266;1254;69951;-89
2024/02/21 08:40:08;;;;;;;22.30;13.10;;;;;;;8.91;99.01;101291.90;108191;1255;74079;-90
2024/02/21 08:42:43;;;;;;;21.60;13.10;;;;;;;8.90;99.80;101291.81;106743;1259;61794;-91
2024/02/21 08:45:16;;;;;;;21.90;12.70;;;;;;;8.89;100.00;101294.27;106716;1257;61471;-89
2024/02/21 08:47:50;;;;;;;23.30;14.10;;;;;;;8.92;100.00;101292.17;106830;1258;77208;-92
2024/02/21 08:50:18;;;;;;;29.10;16.60;;;;;;;8.87;100.00;101295.65;107332;1260;69626;-94
2024/02/21 08:53:01;;;;;;;21.60;13.10;;;;;;;8.94;100.00;101300.47;107020;1259;75292;-90
2024/02/21 08:55:29;;;;;;;22.20;13.80;;;;;;;8.92;100.00;101298.90;107627;1254;61258;-89
2024/02/21 08:57:57;;;;;;;24.00;14.20;;;;;;;8.80;100.00;101308.08;107338;1254;61193;-92
2024/02/21 09:00:27;;;;;;;22.60;14.50;;;;;;;8.78;100.00;101303.73;107329;1253;76977;-92
2024/02/21 09:02:55;;;;;;;26.40;13.60;;;;;;;8.73;100.00;101309.48;107020;1257;67096;-92
2024/02/21 09:05:30;;;;;;;25.80;16.10;;;;;;;8.79;100.00;101308.60;107395;1255;74235;-90
2024/02/21 09:07:59;;;;;;;27.50;16.80;;;;;;;8.86;100.00;101310.90;107087;1254;62943;-91
2024/02/21 09:10:27;;;;;;;33.00;19.30;;;;;;;8.93;100.00;101310.09;107379;1251;61417;-93
2024/02/21 09:12:58;;;;;;;48.40;26.00;;;;;;;8.98;100.00;101311.20;107841;1257;73909;-90
2024/02/21 09:15:30;;;;;;;36.80;20.80;;;;;;;9.08;100.00;101308.48;107706;1257;68766;-93
2024/02/21 09:18:03;;;;;;;34.60;19.40;;;;;;;9.20;100.00;101303.94;107129;1253;72573;-91
2024/02/21 09:21:06;;;;;;;52.90;30.40;;;;;;;9.28;100.00;101305.90;107467;1256;61269;-93
2024/02/21 09:23:34;;;;;;;20.60;13.20;;;;;;;9.31;100.00;101305.61;107305;1259;61362;-93
2024/02/21 09:26:04;;;;;;;21.10;12.80;;;;;;;9.40;100.00;101296.52;107280;1253;77139;-92
2024/02/21 09:28:34;;;;;;;19.70;12.40;;;;;;;9.55;100.00;101295.26;107080;1254;69488;-92
2024/02/21 09:31:03;;;;;;;19.20;12.20;;;;;;;9.63;100.00;101290.41;107416;1257;73783;-92
2024/02/21 09:33:30;;;;;;;19.50;13.10;;;;;;;9.73;100.00;101291.19;107178;1257;61349;-92
2024/02/21 09:36:06;;;;;;;21.50;12.70;;;;;;;9.81;100.00;101293.08;107411;1259;60468;-92
2024/02/21 09:38:34;;;;;;;20.10;12.50;;;;;;;9.88;100.00;101293.61;107205;1259;76591;-92
2024/02/21 09:41:25;;;;;;;20.30;11.90;;;;;;;9.89;100.00;101290.08;107395;1254;70203;-92
2024/02/21 09:43:53;;;;;;;18.90;11.50;;;;;;;10.01;100.00;101292.63;107083;1258;74220;-93
2024/02/21 09:46:29;;;;;;;18.60;11.70;;;;;;;10.09;100.00;101286.60;107168;1253;63015;-93
2024/02/21 09:49:28;;;;;;;16.60;11.10;;;;;;;10.07;100.00;101281.39;107456;1253;61287;-93
2024/02/21 09:51:56;;;;;;;17.50;10.90;;;;;;;10.13;100.00;101284.35;108037;1253;76032;-90
2024/02/21 09:54:25;;;;;;;18.60;11.40;;;;;;;10.24;100.00;101279.06;107498;1257;71095;-93
2024/02/21 09:56:52;;;;;;;19.50;11.60;;;;;;;10.31;100.00;101278.35;107227;1257;75005;-92
2024/02/21 09:59:21;;;;;;;17.30;10.30;;;;;;;10.27;100.00;101274.96;107088;1257;61782;-93
2024/02/21 10:01:50;;;;;;;19.50;11.90;;;;;;;10.26;100.00;101274.45;107142;1257;61251;-93
2024/02/21 10:04:22;;;;;;;18.70;12.00;;;;;;;10.29;99.89;101275.86;107256;1259;76732;-92
2024/02/21 10:06:58;;;;;;;16.80;10.20;;;;;;;10.27;98.65;101275.18;107354;1259;69680;-92
2024/02/21 10:09:30;;;;;;;17.70;10.40;;;;;;;10.29;97.38;101277.23;107187;1255;73086;-92
2024/02/21 10:12:12;;;;;;;19.40;11.20;;;;;;;10.29;95.84;101275.30;107388;1261;61445;-89
2024/02/21 10:14:44;;;;;;;17.90;11.10;;;;;;;10.24;95.08;101277.55;108310;1252;61179;-92
2024/02/21 10:17:20;;;;;;;18.90;11.40;;;;;;;10.15;94.45;101274.16;106805;1254;74801;-92
2024/02/21 10:19:52;;;;;;;19.70;12.70;;;;;;;10.17;94.31;101271.94;106746;1256;69030;-91
2024/02/21 10:22:26;;;;;;;20.80;12.00;;;;;;;10.17;94.35;101280.08;106362;1254;74008;-92
2024/02/21 10:25:07;;;;;;;19.10;12.10;;;;;;;10.00;94.64;101278.43;107625;1258;61381;-93
2024/02/21 10:27:35;;;;;;;17.60;10.90;;;;;;;9.97;94.33;101277.73;107015;1254;61316;-92
2024/02/21 10:30:13;;;;;;;20.90;12.40;;;;;;;9.92;94.39;101276.85;107697;1255;75354;-92
2024/02/21 10:32:59;;;;;;;18.70;11.40;;;;;;;9.81;94.72;101276.48;107797;1257;69610;-93
2024/02/21 10:35:29;;;;;;;20.00;11.60;;;;;;;9.78;95.03;101271.83;107314;1259;74469;-91
2024/02/21 10:37:58;;;;;;;18.20;11.30;;;;;;;9.82;94.93;101270.94;106958;1254;63267;-91
2024/02/21 10:40:29;;;;;;;19.70;11.40;;;;;;;9.82;95.31;101271.33;106822;1253;59905;-91
2024/02/21 10:43:00;;;;;;;18.00;11.30;;;;;;;9.90;94.99;101266.77;107103;1254;75897;-92
2024/02/21 10:45:35;;;;;;;19.00;11.30;;;;;;;9.94;94.70;101271.35;106932;1259;70972;-92
2024/02/21 10:48:24;;;;;;;20.70;13.10;;;;;;;9.92;94.99;101271.45;106688;1258;73894;-93
2024/02/21 10:51:14;;;;;;;20.10;12.10;;;;;;;9.94;94.92;101272.27;107560;1258;62328;-91
2024/02/21 10:54:31;;;;;;;22.20;14.50;;;;;;;9.92;94.86;101268.88;107906;1255;61139;-94
2024/02/21 10:57:11;;;;;;;21.20;12.80;;;;;;;9.90;94.69;101264.23;107704;1257;74911;-92
2024/02/21 10:59:45;;;;;;;22.70;13.70;;;;;;;9.92;94.85;101262.33;106671;1258;69359;-93
2024/02/21 11:02:20;;;;;;;20.20;12.90;;;;;;;9.92;95.41;101262.92;106517;1254;72596;-91
2024/02/21 11:04:54;;;;;;;20.90;13.00;;;;;;;9.98;95.89;101256.44;106519;1255;61737;-91
2024/02/21 11:07:29;;;;;;;23.10;14.10;;;;;;;10.18;95.37;101253.65;106407;1254;62507;-91
2024/02/21 11:10:05;;;;;;;20.80;13.30;;;;;;;10.29;95.01;101257.66;107108;1257;75208;-91
2024/02/21 11:12:39;;;;;;;23.40;13.60;;;;;;;10.29;95.22;101253.41;107444;1254;70388;-92
2024/02/21 11:15:13;;;;;;;24.60;14.00;;;;;;;10.33;94.98;101251.81;106958;1254;73734;-93
2024/02/21 11:17:55;;;;;;;21.90;14.00;;;;;;;10.42;93.82;101255.89;106484;1263;62692;-92
2024/02/21 11:20:35;;;;;;;22.20;12.80;;;;;;;10.53;93.16;101252.17;107091;1257;62370;-92
2024/02/21 11:23:09;;;;;;;21.60;13.70;;;;;;;10.59;92.34;101251.95;106855;1254;74291;-93
2024/02/21 11:25:46;;;;;;;24.40;13.80;;;;;;;10.59;91.58;101249.38;107155;1257;71086;-91
2024/02/21 11:28:25;;;;;;;21.60;13.50;;;;;;;10.58;91.76;101244.40;107028;1257;73787;-93
2024/02/21 11:31:15;;;;;;;21.70;13.70;;;;;;;10.59;91.24;101245.34;106880;1254;61250;-91
2024/02/21 11:33:49;;;;;;;21.20;13.50;;;;;;;10.56;91.04;101242.59;106850;1253;61352;-91
2024/02/21 11:36:24;;;;;;;21.30;13.30;;;;;;;10.58;90.57;101236.96;106933;1253;74673;-93
2024/02/21 11:39:09;;;;;;;20.30;12.80;;;;;;;10.61;89.62;101240.92;106749;1254;69594;-92
2024/02/21 11:41:43;;;;;;;20.30;13.00;;;;;;;10.61;89.19;101243.77;106842;1257;74859;-91
2024/02/21 11:44:17;;;;;;;21.10;12.40;;;;;;;10.52;89.77;101244.79;107263;1254;63364;-92
2024/02/21 11:46:51;;;;;;;20.50;13.00;;;;;;;10.57;89.46;101244.73;107100;1254;61988;-91
2024/02/21 11:49:26;;;;;;;21.30;12.60;;;;;;;10.57;88.84;101243.23;106913;1258;74820;-91
2024/02/21 11:52:04;;;;;;;23.70;13.70;;;;;;;10.46;89.25;101244.35;107693;1251;71598;-91
2024/02/21 11:54:38;;;;;;;22.10;13.50;;;;;;;10.59;88.21;101243.98;106935;1254;72578;-93
2024/02/21 11:57:12;;;;;;;22.30;13.00;;;;;;;10.58;88.23;101243.73;106637;1260;61153;-93
2024/02/21 11:59:46;;;;;;;24.10;14.00;;;;;;;10.49;89.00;101239.84;106934;1257;61173;-91
2024/02/21 12:02:20;;;;;;;19.40;12.20;;;;;;;10.47;89.57;101238.28;106796;1251;75086;-93
2024/02/21 12:04:54;;;;;;;23.20;13.10;;;;;;;10.44;89.46;101233.40;107703;1254;72149;-92
2024/02/21 12:07:29;;;;;;;25.30;13.90;;;;;;;10.39;89.65;101238.31;106993;1253;74245;-92
2024/02/21 12:10:03;;;;;;;19.40;12.50;;;;;;;10.45;88.93;101241.61;107611;1254;63470;-93
2024/02/21 12:12:38;;;;;;;21.40;12.70;;;;;;;10.37;89.21;101240.33;107188;1252;61172;-92
2024/02/21 12:15:13;;;;;;;24.70;14.00;;;;;;;10.35;89.45;101238.82;107373;1254;76438;-93
2024/02/21 12:17:47;;;;;;;21.50;12.80;;;;;;;10.37;89.70;101237.16;106241;1254;70718;-91
2024/02/21 12:20:21;;;;;;;22.40;13.20;;;;;;;10.41;89.46;101238.34;107074;1254;73194;-92
2024/02/21 12:22:55;;;;;;;22.50;13.10;;;;;;;10.38;90.18;101236.89;106564;1259;62519;-92
2024/02/21 12:25:29;;;;;;;23.30;13.60;;;;;;;10.39;89.78;101235.86;107056;1253;62256;-92
2024/02/21 12:28:03;;;;;;;24.60;14.40;;;;;;;10.35;90.24;101235.38;107168;1252;74984;-91
2024/02/21 12:30:39;;;;;;;22.70;13.90;;;;;;;10.30;90.63;101232.45;107143;1254;68730;-92
2024/02/21 12:33:16;;;;;;;23.40;13.80;;;;;;;10.24;91.23;101233.99;107027;1254;73326;-91
2024/02/21 12:35:50;;;;;;;22.10;13.20;;;;;;;10.26;91.71;101232.72;106658;1252;62391;-93
2024/02/21 12:38:24;;;;;;;22.30;13.70;;;;;;;10.25;91.76;101239.04;106397;1253;61311;-91
2024/02/21 12:41:00;;;;;;;23.70;13.10;;;;;;;10.23;91.74;101239.17;106806;1254;76717;-92
2024/02/21 12:43:34;;;;;;;24.30;13.40;;;;;;;10.24;91.58;101236.41;106639;1257;69868;-92
2024/02/21 12:46:08;;;;;;;28.70;13.70;;;;;;;10.28;91.62;101237.23;106504;1254;75404;-91
2024/02/21 12:48:42;;;;;;;22.50;14.30;;;;;;;10.21;92.27;101239.86;107629;1255;62049;-90
2024/02/21 12:51:20;;;;;;;27.00;14.10;;;;;;;10.20;92.52;101237.67;106554;1256;61192;-93
2024/02/21 12:53:54;;;;;;;28.30;12.70;;;;;;;10.30;91.93;101237.40;106595;1257;76263;-91
2024/02/21 12:56:29;;;;;;;24.20;13.70;;;;;;;10.25;92.08;101236.52;106886;1254;71141;-93
2024/02/21 12:59:03;;;;;;;23.50;14.20;;;;;;;10.17;93.01;101232.88;106603;1257;76404;-94
2024/02/21 13:01:43;;;;;;;23.90;14.40;;;;;;;10.15;93.48;101231.13;106628;1259;61230;-92
2024/02/21 13:04:24;;;;;;;27.70;14.20;;;;;;;10.15;94.01;101226.04;107129;1253;61601;-91
2024/02/21 13:07:06;;;;;;;25.00;14.10;;;;;;;10.23;94.13;101225.63;107202;1257;74466;-93
2024/02/21 13:09:46;;;;;;;26.20;14.80;;;;;;;10.28;94.37;101228.00;106426;1254;72414;-91
2024/02/21 13:12:27;;;;;;;28.30;15.30;;;;;;;10.33;94.76;101223.02;106454;1254;73082;-93
2024/02/21 13:15:09;;;;;;;27.70;14.20;;;;;;;10.44;94.47;101225.14;106630;1255;61825;-91
2024/02/21 13:17:50;;;;;;;28.10;15.00;;;;;;;10.54;94.46;101224.36;106345;1254;61317;-93
2024/02/21 13:20:29;;;;;;;26.40;15.20;;;;;;;10.69;93.81;101221.10;106372;1260;76520;-93
2024/02/21 13:23:04;;;;;;;26.20;15.20;;;;;;;10.69;93.87;101220.48;107237;1257;70092;-92
2024/02/21 13:25:38;;;;;;;26.70;15.10;;;;;;;10.62;94.32;101223.39;107437;1255;72973;-91
2024/02/21 13:28:15;;;;;;;25.40;15.10;;;;;;;10.75;93.81;101220.65;106428;1254;61247;-91
2024/02/21 13:30:49;;;;;;;42.60;18.10;;;;;;;10.71;93.65;101223.45;106510;1254;61557;-92
2024/02/21 13:33:23;;;;;;;30.60;16.60;;;;;;;10.77;93.44;101219.41;106367;1254;74273;-92
2024/02/21 13:35:57;;;;;;;27.30;15.80;;;;;;;10.80;93.21;101222.88;106453;1254;71060;-94
2024/02/21 13:38:31;;;;;;;28.70;15.40;;;;;;;10.83;92.56;101226.29;104927;1254;2070326;-91
2024/02/21 13:41:06;;;;;;;24.50;14.10;;;;;;;10.77;92.92;101233.63;107722;1253;61361;-90
2024/02/21 13:43:40;;;;;;;29.20;17.60;;;;;;;10.81;92.59;101235.52;106600;1254;61416;-92
2024/02/21 13:46:21;;;;;;;63.00;37.40;;;;;;;10.77;92.43;101234.00;106639;1254;76303;-94
2024/02/21 13:49:08;;;;;;;44.50;28.10;;;;;;;10.65;93.15;101234.18;106544;1254;69663;-92
2024/02/21 13:51:48;;;;;;;50.40;36.70;;;;;;;10.63;93.05;101229.23;106499;1253;74712;-92
2024/02/21 13:54:29;;;;;;;35.10;21.50;;;;;;;10.58;93.56;101230.41;106587;1254;61214;-91
2024/02/21 13:57:09;;;;;;;28.40;15.40;;;;;;;10.49;93.96;101230.02;107644;1252;61096;-92
2024/02/21 13:59:49;;;;;;;28.40;14.70;;;;;;;10.48;94.31;101231.26;106907;1254;75069;-92
2024/02/21 14:02:29;;;;;;;26.40;14.70;;;;;;;10.51;94.17;101228.60;106525;1254;69227;-94
2024/02/21 14:05:09;;;;;;;27.70;14.50;;;;;;;10.49;94.53;101228.03;106434;1254;73696;-95
2024/02/21 14:07:49;;;;;;;26.80;14.50;;;;;;;10.47;94.64;101227.02;106605;1251;61852;-92
2024/02/21 14:10:30;;;;;;;27.90;14.50;;;;;;;10.51;94.20;101226.14;106664;1253;61825;-94
2024/02/21 14:13:11;;;;;;;29.70;16.10;;;;;;;10.39;95.12;101227.17;107315;1252;74441;-94
2024/02/21 14:15:51;;;;;;;28.00;15.60;;;;;;;10.34;95.88;101224.83;106921;1253;68972;-92
2024/02/21 14:18:31;;;;;;;28.20;15.30;;;;;;;10.43;95.10;101222.08;106591;1254;73046;-93
2024/02/21 14:21:11;;;;;;;29.50;16.30;;;;;;;10.46;95.07;101223.84;106500;1257;61240;-94
2024/02/21 14:23:52;;;;;;;29.60;16.50;;;;;;;10.47;94.66;101220.86;106679;1254;61272;-92
2024/02/21 14:26:32;;;;;;;25.90;14.40;;;;;;;10.30;95.77;101218.62;106681;1254;76569;-94
2024/02/21 14:29:13;;;;;;;28.40;16.10;;;;;;;10.26;96.27;101217.31;106998;1254;69413;-92
2024/02/21 14:31:53;;;;;;;27.10;15.80;;;;;;;10.29;96.00;101224.63;107067;1254;73548;-93
2024/02/21 14:34:33;;;;;;;28.10;14.60;;;;;;;10.21;96.66;101224.85;108166;1254;61310;-92
2024/02/21 14:37:13;;;;;;;31.00;16.30;;;;;;;10.06;97.58;101222.77;106743;1254;62092;-94
2024/02/21 14:39:53;;;;;;;27.60;15.50;;;;;;;10.00;98.46;101225.55;106859;1257;77217;-93
2024/02/21 14:42:34;;;;;;;28.70;16.00;;;;;;;9.98;98.70;101227.77;106790;1254;68728;-92
2024/02/21 14:45:14;;;;;;;27.00;15.10;;;;;;;9.96;99.08;101223.61;106955;1257;73570;-92
2024/02/21 14:47:55;;;;;;;27.90;14.10;;;;;;;9.98;98.75;101218.98;107744;1253;62432;-94
2024/02/21 14:50:35;;;;;;;26.60;15.60;;;;;;;9.86;99.52;101221.52;106698;1257;61622;-92
2024/02/21 14:53:17;;;;;;;30.50;16.10;;;;;;;9.76;100.00;101225.12;106602;1253;74247;-92
2024/02/21 14:55:57;;;;;;;28.30;16.70;;;;;;;9.81;100.00;101231.08;106636;1257;71071;-92
2024/02/21 14:58:38;;;;;;;27.20;16.40;;;;;;;9.85;100.00;101235.44;106664;1254;75053;-92
2024/02/21 15:01:19;;;;;;;31.10;16.00;;;;;;;9.93;99.81;101233.02;106617;1254;63770;-92
2024/02/21 15:03:59;;;;;;;26.60;15.50;;;;;;;9.97;99.60;101233.23;107195;1257;61253;-94
2024/02/21 15:06:39;;;;;;;31.30;16.00;;;;;;;9.94;99.79;101234.66;106451;1257;73722;-92
2024/02/21 15:09:19;;;;;;;31.80;15.80;;;;;;;10.00;99.58;101229.88;106500;1254;71074;-92
2024/02/21 15:12:00;;;;;;;27.30;15.50;;;;;;;9.91;99.79;101228.73;106974;1252;74904;-92
2024/02/21 15:14:40;;;;;;;28.20;16.30;;;;;;;9.84;100.00;101229.85;106392;1254;62423;-94
2024/02/21 15:17:20;;;;;;;27.00;16.10;;;;;;;9.89;99.94;101229.64;106445;1257;62495;-93
2024/02/21 15:20:01;;;;;;;29.40;15.40;;;;;;;9.93;99.78;101229.20;106920;1254;75658;-91
2024/02/21 15:22:42;;;;;;;27.60;15.70;;;;;;;9.95;99.73;101231.02;106757;1259;69548;-91
2024/02/21 15:25:22;;;;;;;28.50;15.70;;;;;;;9.84;100.00;101232.10;107200;1255;73255;-93
2024/02/21 15:28:04;;;;;;;29.10;16.20;;;;;;;9.82;100.00;101220.45;106415;1254;64057;-94
2024/02/21 15:30:44;;;;;;;27.80;16.10;;;;;;;9.79;99.91;101217.63;106547;1257;61112;-93
2024/02/21 15:33:25;;;;;;;27.50;14.80;;;;;;;9.77;99.05;101215.97;106497;1254;74147;-92
2024/02/21 15:36:06;;;;;;;27.20;16.10;;;;;;;9.75;98.75;101219.70;106870;1252;70502;-92
2024/02/21 15:38:46;;;;;;;27.10;15.90;;;;;;;9.79;97.88;101214.61;107325;1258;73516;-92
2024/02/21 15:41:26;;;;;;;27.60;16.70;;;;;;;9.72;97.72;101218.47;107034;1253;61901;-92
2024/02/21 15:44:07;;;;;;;28.80;15.50;;;;;;;9.63;98.45;101218.14;106443;1252;61351;-92
2024/02/21 15:46:47;;;;;;;29.20;16.80;;;;;;;9.49;99.82;101222.34;106308;1253;75676;-92
2024/02/21 15:49:27;;;;;;;29.70;16.50;;;;;;;9.42;100.00;101224.88;106586;1255;71264;-93
2024/02/21 15:52:07;;;;;;;29.30;15.90;;;;;;;9.43;100.00;101223.13;105995;1257;74644;-92
2024/02/21 15:54:47;;;;;;;31.40;16.70;;;;;;;9.53;100.00;101218.73;106421;1253;61976;-92
2024/02/21 15:57:27;;;;;;;32.80;17.60;;;;;;;9.51;100.00;101222.36;106714;1256;61230;-91
2024/02/21 16:00:12;;;;;;;29.20;16.80;;;;;;;9.52;100.00;101218.93;106584;1252;74408;-92
2024/02/21 16:02:53;;;;;;;30.70;20.50;;;;;;;9.61;99.97;101221.62;106829;1254;70566;-93
2024/02/21 16:05:33;;;;;;;28.30;16.50;;;;;;;9.62;99.97;101223.23;106340;1254;74517;-92
2024/02/21 16:08:14;;;;;;;30.90;17.50;;;;;;;9.55;100.00;101227.20;106449;1254;61988;-91
2024/02/21 16:10:56;;;;;;;33.00;18.30;;;;;;;9.54;100.00;101225.60;106789;1252;61353;-92
2024/02/21 16:13:36;;;;;;;29.00;18.20;;;;;;;9.53;100.00;101229.86;106530;1254;74473;-92
2024/02/21 16:16:16;;;;;;;36.30;22.50;;;;;;;9.50;100.00;101231.73;106788;1254;70960;-92
2024/02/21 16:18:56;;;;;;;30.30;17.80;;;;;;;9.54;100.00;101235.20;106440;1253;72301;-91
2024/02/21 16:21:36;;;;;;;29.60;17.60;;;;;;;9.56;100.00;101236.83;106424;1259;61260;-92
2024/02/21 16:24:17;;;;;;;30.30;18.00;;;;;;;9.50;100.00;101237.79;106377;1257;61339;-92
2024/02/21 16:26:57;;;;;;;31.40;18.50;;;;;;;9.37;100.00;101238.22;106554;1257;74292;-92
2024/02/21 16:29:37;;;;;;;31.00;17.30;;;;;;;9.33;100.00;101241.54;106918;1251;70671;-88
2024/02/21 16:32:19;;;;;;;28.40;16.50;;;;;;;9.38;100.00;101245.77;108174;1251;72747;-90
2024/02/21 16:35:00;;;;;;;31.90;17.80;;;;;;;9.38;100.00;101248.53;106849;1252;62032;-90
2024/02/21 16:37:40;;;;;;;30.30;16.60;;;;;;;9.31;100.00;101252.25;106658;1251;61269;-94
2024/02/21 16:40:20;;;;;;;27.90;17.20;;;;;;;9.33;100.00;101254.25;106577;1254;74128;-93
2024/02/21 16:43:02;;;;;;;29.40;16.40;;;;;;;9.29;100.00;101256.38;106951;1257;71053;-93
2024/02/21 16:45:43;;;;;;;32.10;15.90;;;;;;;9.24;100.00;101257.18;106841;1254;72235;-92
2024/02/21 16:48:23;;;;;;;28.50;15.90;;;;;;;9.19;100.00;101261.38;106408;1257;61616;-94
2024/02/21 16:51:04;;;;;;;27.20;15.70;;;;;;;9.19;100.00;101261.80;107169;1257;61109;-92
2024/02/21 16:53:44;;;;;;;29.00;15.90;;;;;;;9.23;100.00;101266.27;106626;1253;76693;-93
2024/02/21 16:56:25;;;;;;;25.50;14.50;;;;;;;9.26;100.00;101270.42;106623;1257;69760;-92
2024/02/21 16:59:05;;;;;;;27.10;16.50;;;;;;;9.30;100.00;101270.10;107237;1258;73711;-93
2024/02/21 17:01:46;;;;;;;29.50;15.80;;;;;;;9.36;100.00;101275.19;106653;1257;62128;-92
2024/02/21 17:04:26;;;;;;;29.10;16.10;;;;;;;9.43;100.00;101271.41;106450;1253;63163;-91
2024/02/21 17:07:06;;;;;;;29.80;16.90;;;;;;;9.40;100.00;101270.55;106577;1253;76519;-91
2024/02/21 17:09:47;;;;;;;32.30;18.20;;;;;;;9.41;100.00;101265.06;106781;1257;68615;-91
2024/02/21 17:12:28;;;;;;;34.30;19.50;;;;;;;9.36;100.00;101264.83;107295;1253;73858;-91
2024/02/21 17:15:11;;;;;;;31.70;17.80;;;;;;;9.39;100.00;101262.04;107291;1257;61970;-90
2024/02/21 17:17:51;;;;;;;32.00;18.50;;;;;;;9.42;100.00;101259.89;108217;1252;61254;-92
2024/02/21 17:20:31;;;;;;;29.50;18.10;;;;;;;9.42;100.00;101259.99;106626;1255;76762;-91
2024/02/21 17:23:12;;;;;;;29.30;17.00;;;;;;;9.47;100.00;101262.20;106415;1253;69675;-91